Terminal Aerodrome Forecast
Issued by NWS Indianapolis, IN

Home | Current Version | Previous Version | Text Only | Print | Product List | Glossary On
Versions: 1 2 3 4 5 6 7 8 9 10 11 12 13 14 15 16 17 18 19 20 21 22 23 24 25 26
000
FTUS43 KIND 031443 AAB
TAFIND
TAF AMD
KIND 031443Z 0315/0418 25007KT P6SM SCT030 SCT100
     FM040100 23004KT P6SM SCT250
     FM040700 00000KT P6SM SCT080 BKN250
      TEMPO 0410/0412 5SM BR=

USA.gov is the U.S. government's official web portal to all federal, state and local government web resources and services.